createdAt,value
2018-06-12T00:02:11.115Z,98904.00
2018-06-12T00:04:40.791Z,98901.00
2018-06-12T00:07:10.252Z,98896.00
2018-06-12T00:09:39.752Z,98903.00
2018-06-12T00:12:09.353Z,98900.00
2018-06-12T00:14:38.870Z,98894.00
2018-06-12T00:17:08.467Z,98898.00
2018-06-12T00:19:37.961Z,98898.00
2018-06-12T00:22:07.403Z,98907.00
2018-06-12T00:24:36.943Z,98898.00
2018-06-12T00:27:06.389Z,98900.00
2018-06-12T00:29:35.853Z,98903.00
2018-06-12T00:32:05.370Z,98893.00
2018-06-12T00:34:34.960Z,98900.00
2018-06-12T00:37:04.448Z,98906.00
2018-06-12T00:39:33.911Z,98905.00
2018-06-12T00:42:03.368Z,98901.00
2018-06-12T00:44:32.916Z,98905.00
2018-06-12T00:47:02.432Z,98904.00
2018-06-12T00:49:31.916Z,98912.00
2018-06-12T00:52:01.368Z,98912.00
2018-06-12T00:54:30.936Z,98905.00
2018-06-12T00:57:07.068Z,98916.00
2018-06-12T00:59:36.573Z,98923.00
2018-06-12T01:02:07.338Z,98922.00
2018-06-12T01:04:36.779Z,98918.00
2018-06-12T01:07:06.240Z,98921.00
2018-06-12T01:09:35.747Z,98923.00
2018-06-12T01:12:05.241Z,98918.00
2018-06-12T01:14:34.705Z,98922.00
2018-06-12T01:17:04.325Z,98923.00
2018-06-12T01:19:33.879Z,98920.00
2018-06-12T01:22:03.309Z,98924.00
2018-06-12T01:24:32.771Z,98925.00
2018-06-12T01:27:02.217Z,98922.00
2018-06-12T01:29:31.731Z,98922.00
2018-06-12T01:32:01.265Z,98916.00
2018-06-12T01:34:30.864Z,98924.00
2018-06-12T01:37:00.378Z,98924.00
2018-06-12T01:39:29.845Z,98929.00
2018-06-12T01:41:59.442Z,98919.00
2018-06-12T01:44:28.909Z,98931.00
2018-06-12T01:46:58.398Z,98923.00
2018-06-12T01:49:27.951Z,98910.00
2018-06-12T01:51:57.443Z,98919.00
2018-06-12T01:54:26.902Z,98916.00
2018-06-12T01:56:56.490Z,98917.00
2018-06-12T01:59:25.947Z,98921.00
2018-06-12T02:01:55.360Z,98924.00
2018-06-12T02:04:24.885Z,98936.00
2018-06-12T02:06:54.386Z,98928.00
2018-06-12T02:09:23.873Z,98933.00
2018-06-12T02:11:53.261Z,98934.00
2018-06-12T02:14:22.789Z,98931.00
2018-06-12T02:16:52.185Z,98934.00
2018-06-12T02:19:21.569Z,98936.00
2018-06-12T02:21:50.952Z,98935.00
2018-06-12T02:24:20.352Z,98933.00
2018-06-12T02:26:49.812Z,98937.00
2018-06-12T02:29:19.281Z,98931.00
2018-06-12T02:31:48.703Z,98942.00
2018-06-12T02:34:18.089Z,98942.00
2018-06-12T02:36:47.585Z,98939.00
2018-06-12T02:39:17.621Z,98934.00
2018-06-12T02:41:47.149Z,98937.00
2018-06-12T02:44:16.683Z,98940.00
2018-06-12T02:46:46.148Z,98944.00
2018-06-12T02:49:15.802Z,98944.00
2018-06-12T02:51:45.193Z,98939.00
2018-06-12T02:54:14.356Z,98940.00
2018-06-12T02:56:43.898Z,98945.00
2018-06-12T02:59:13.530Z,98942.00
2018-06-12T03:01:42.902Z,98950.00
2018-06-12T03:04:12.305Z,98949.00
2018-06-12T03:06:42.640Z,98954.00
2018-06-12T03:09:12.060Z,98953.00
2018-06-12T03:11:41.565Z,98952.00
2018-06-12T03:14:10.896Z,98957.00
2018-06-12T03:16:40.246Z,98957.00
2018-06-12T03:19:09.680Z,98959.00
2018-06-12T03:21:39.009Z,98961.00
2018-06-12T03:24:08.388Z,98960.00
2018-06-12T03:26:37.791Z,98957.00
2018-06-12T03:29:07.302Z,98956.00
2018-06-12T03:31:36.862Z,98955.00
2018-06-12T03:34:06.256Z,98963.00
2018-06-12T03:36:35.725Z,98959.00
2018-06-12T03:39:07.039Z,98961.00
2018-06-12T03:41:36.587Z,98960.00
2018-06-12T03:44:05.985Z,98963.00
2018-06-12T03:46:35.495Z,98960.00
2018-06-12T03:49:05.091Z,98967.00
2018-06-12T03:51:34.565Z,98964.00
2018-06-12T03:54:03.973Z,98965.00
2018-06-12T03:56:33.422Z,98964.00
2018-06-12T03:59:02.819Z,98966.00
2018-06-12T04:01:32.258Z,98975.00
2018-06-12T04:04:01.602Z,98972.00
2018-06-12T04:06:32.842Z,98969.00
2018-06-12T04:09:02.387Z,98971.00
2018-06-12T04:11:31.747Z,98973.00
2018-06-12T04:14:01.141Z,98972.00
2018-06-12T04:16:30.597Z,98975.00
2018-06-12T04:18:59.952Z,98973.00
2018-06-12T04:21:29.314Z,98985.00
2018-06-12T04:23:58.800Z,98982.00
2018-06-12T04:26:28.238Z,98976.00
2018-06-12T04:28:57.682Z,98990.00
2018-06-12T04:31:27.073Z,98991.00
2018-06-12T04:33:56.598Z,98992.00
2018-06-12T04:36:26.024Z,98994.00
2018-06-12T04:38:55.395Z,98994.00
2018-06-12T04:41:24.834Z,98992.00
2018-06-12T04:43:54.247Z,98989.00
2018-06-12T04:46:23.643Z,98990.00
2018-06-12T04:48:53.086Z,98999.00
2018-06-12T04:51:22.465Z,99004.00
2018-06-12T04:53:51.817Z,99005.00
2018-06-12T04:56:21.179Z,99001.00
2018-06-12T04:58:50.502Z,99009.00
2018-06-12T05:01:19.869Z,99003.00
2018-06-12T05:03:49.388Z,99008.00
2018-06-12T05:06:18.977Z,99010.00
2018-06-12T05:08:48.454Z,99006.00
2018-06-12T05:11:17.957Z,99007.00
2018-06-12T05:13:47.474Z,99016.00
2018-06-12T05:16:16.910Z,99019.00
2018-06-12T05:18:46.360Z,99021.00
2018-06-12T05:21:15.909Z,99016.00
2018-06-12T05:23:46.212Z,99029.00
2018-06-12T05:26:15.689Z,99027.00
2018-06-12T05:28:45.192Z,99030.00
2018-06-12T05:31:14.607Z,99042.00
2018-06-12T05:33:44.102Z,99056.00
2018-06-12T05:36:13.644Z,99054.00
2018-06-12T05:38:43.193Z,99057.00
2018-06-12T05:41:12.654Z,99063.00
2018-06-12T05:43:42.205Z,99063.00
2018-06-12T05:46:11.680Z,99068.00
2018-06-12T05:48:41.149Z,99066.00
2018-06-12T05:51:10.584Z,99079.00
2018-06-12T05:53:40.156Z,99081.00
2018-06-12T05:56:09.640Z,99076.00
2018-06-12T05:58:39.334Z,99076.00
2018-06-12T06:01:08.951Z,99081.00
2018-06-12T06:03:38.484Z,99079.00
2018-06-12T06:06:07.978Z,99081.00
2018-06-12T06:08:37.603Z,99085.00
2018-06-12T06:11:07.070Z,99081.00
2018-06-12T06:13:36.633Z,99091.00
2018-06-12T06:16:06.210Z,99095.00
2018-06-12T06:18:35.561Z,99098.00
2018-06-12T06:21:05.031Z,99102.00
2018-06-12T06:23:34.465Z,99103.00
2018-06-12T06:26:04.051Z,99101.00
2018-06-12T06:28:33.536Z,99098.00
2018-06-12T06:31:03.154Z,99109.00
2018-06-12T06:33:32.723Z,99102.00
2018-06-12T06:36:02.203Z,99102.00
2018-06-12T06:38:31.721Z,99105.00
2018-06-12T06:41:01.228Z,99100.00
2018-06-12T06:43:31.112Z,99103.00
2018-06-12T06:46:00.640Z,99102.00
2018-06-12T06:48:30.228Z,99105.00
2018-06-12T06:50:59.739Z,99103.00
2018-06-12T06:53:29.223Z,99112.00
2018-06-12T06:55:58.733Z,99105.00
2018-06-12T06:58:28.248Z,99110.00
2018-06-12T07:00:57.914Z,99119.00
2018-06-12T07:03:27.385Z,99112.00
2018-06-12T07:05:56.968Z,99123.00
2018-06-12T07:08:26.511Z,99125.00
2018-06-12T07:10:55.953Z,99122.00
2018-06-12T07:13:25.478Z,99126.00
2018-06-12T07:15:54.978Z,99126.00
2018-06-12T07:18:24.527Z,99117.00
2018-06-12T07:21:07.241Z,99119.00
2018-06-12T07:23:36.727Z,99123.00
2018-06-12T07:26:06.227Z,99118.00
2018-06-12T07:28:35.769Z,99121.00
2018-06-12T07:31:05.206Z,99126.00
2018-06-12T07:33:34.655Z,99123.00
2018-06-12T07:36:04.120Z,99125.00
2018-06-12T07:38:33.616Z,99118.00
2018-06-12T07:41:03.082Z,99110.00
2018-06-12T07:43:32.570Z,99121.00
2018-06-12T07:46:02.038Z,99115.00
2018-06-12T07:48:31.320Z,99122.00
2018-06-12T07:51:00.816Z,99123.00
2018-06-12T07:53:30.280Z,99122.00
2018-06-12T07:55:59.722Z,99122.00
2018-06-12T07:58:29.346Z,99123.00
2018-06-12T08:00:59.805Z,99119.00
2018-06-12T08:03:29.253Z,99127.00
2018-06-12T08:05:58.777Z,99118.00
2018-06-12T08:08:28.297Z,99121.00
2018-06-12T08:10:57.786Z,99125.00
2018-06-12T08:13:27.329Z,99125.00
2018-06-12T08:15:56.835Z,99130.00
2018-06-12T08:18:26.321Z,99134.00
2018-06-12T08:20:55.817Z,99128.00
2018-06-12T08:23:25.257Z,99140.00
2018-06-12T08:25:54.750Z,99133.00
2018-06-12T08:28:24.207Z,99130.00
2018-06-12T08:30:53.713Z,99136.00
2018-06-12T08:33:23.200Z,99132.00
2018-06-12T08:35:52.683Z,99136.00
2018-06-12T08:38:22.185Z,99135.00
2018-06-12T08:40:51.640Z,99133.00
2018-06-12T08:43:21.133Z,99125.00
2018-06-12T08:45:50.599Z,99128.00
2018-06-12T08:48:20.340Z,99126.00
2018-06-12T08:50:49.917Z,99121.00
2018-06-12T08:53:19.458Z,99130.00
2018-06-12T08:55:48.967Z,99121.00
2018-06-12T08:58:18.428Z,99123.00
2018-06-12T09:00:47.946Z,99121.00
2018-06-12T09:03:17.394Z,99131.00
2018-06-12T09:05:46.956Z,99130.00
2018-06-12T09:08:16.408Z,99122.00
2018-06-12T09:10:46.074Z,99127.00
2018-06-12T09:13:15.612Z,99128.00
2018-06-12T09:15:45.156Z,99126.00
2018-06-12T09:18:14.761Z,99120.00
2018-06-12T09:20:44.296Z,99117.00
2018-06-12T09:23:13.797Z,99122.00
2018-06-12T09:25:43.041Z,99118.00
2018-06-12T09:28:12.614Z,99119.00
2018-06-12T09:30:42.119Z,99125.00
2018-06-12T09:33:11.720Z,99132.00
2018-06-12T09:35:41.305Z,99127.00
2018-06-12T09:38:10.798Z,99127.00
2018-06-12T09:40:40.286Z,99132.00
2018-06-12T09:43:09.850Z,99136.00
2018-06-12T09:45:39.372Z,99136.00
2018-06-12T09:48:08.823Z,99133.00
2018-06-12T09:50:38.885Z,99134.00
2018-06-12T09:53:08.501Z,99139.00
2018-06-12T09:55:38.054Z,99134.00
2018-06-12T09:58:07.546Z,99134.00
2018-06-12T10:00:42.104Z,99137.00
2018-06-12T10:03:11.658Z,99140.00
2018-06-12T10:05:41.142Z,99143.00
2018-06-12T10:08:10.743Z,99145.00
2018-06-12T10:10:40.314Z,99145.00
2018-06-12T10:13:09.809Z,99144.00
2018-06-12T10:15:39.388Z,99149.00
2018-06-12T10:18:08.854Z,99143.00
2018-06-12T10:20:38.863Z,99146.00
2018-06-12T10:23:08.698Z,99157.00
2018-06-12T10:25:38.237Z,99141.00
2018-06-12T10:28:07.835Z,99146.00
2018-06-12T10:30:37.423Z,99154.00
2018-06-12T10:33:07.284Z,99148.00
2018-06-12T10:35:36.744Z,99151.00
2018-06-12T10:38:06.249Z,99144.00
2018-06-12T10:40:36.302Z,99149.00
2018-06-12T10:43:06.032Z,99143.00
2018-06-12T10:45:35.525Z,99137.00
2018-06-12T10:48:05.049Z,99149.00
2018-06-12T10:50:34.539Z,99145.00
2018-06-12T10:53:04.018Z,99141.00
2018-06-12T10:55:33.498Z,99140.00
2018-06-12T10:58:03.273Z,99144.00
2018-06-12T11:00:32.778Z,99141.00
2018-06-12T11:03:02.473Z,99134.00
2018-06-12T11:05:31.979Z,99136.00
2018-06-12T11:08:01.431Z,99143.00
2018-06-12T11:10:31.075Z,99142.00
2018-06-12T11:13:00.553Z,99138.00
2018-06-12T11:15:30.008Z,99136.00
2018-06-12T11:17:59.540Z,99137.00
2018-06-12T11:20:29.033Z,99131.00
2018-06-12T11:22:58.669Z,99135.00
2018-06-12T11:25:28.134Z,99130.00
2018-06-12T11:27:57.844Z,99131.00
2018-06-12T11:30:28.334Z,99125.00
2018-06-12T11:32:57.818Z,99132.00
2018-06-12T11:35:27.373Z,99128.00
2018-06-12T11:37:56.938Z,99122.00
2018-06-12T11:40:26.475Z,99117.00
2018-06-12T11:42:56.019Z,99114.00
2018-06-12T11:45:25.630Z,99114.00
2018-06-12T11:47:55.244Z,99109.00
2018-06-12T11:50:24.699Z,99102.00
2018-06-12T11:52:54.150Z,99107.00
2018-06-12T11:55:23.626Z,99106.00
2018-06-12T11:57:53.235Z,99102.00
2018-06-12T12:00:22.856Z,99112.00
2018-06-12T12:02:52.387Z,99107.00
2018-06-12T12:05:21.917Z,99102.00
2018-06-12T12:07:51.378Z,99105.00
2018-06-12T12:10:20.907Z,99101.00
2018-06-12T12:12:50.418Z,99104.00
2018-06-12T12:15:19.949Z,99105.00
2018-06-12T12:17:49.389Z,99101.00
2018-06-12T12:20:18.927Z,99096.00
2018-06-12T12:22:48.525Z,99098.00
2018-06-12T12:25:18.164Z,99087.00
2018-06-12T12:27:47.793Z,99087.00
2018-06-12T12:30:17.295Z,99091.00
2018-06-12T12:32:46.741Z,99088.00
2018-06-12T12:35:16.304Z,99088.00
2018-06-12T12:37:46.113Z,99087.00
2018-06-12T12:40:15.597Z,99091.00
2018-06-12T12:42:45.069Z,99095.00
2018-06-12T12:45:14.656Z,99098.00
2018-06-12T12:47:44.161Z,99095.00
2018-06-12T12:50:13.764Z,99090.00
2018-06-12T12:52:43.322Z,99095.00
2018-06-12T12:55:12.794Z,99090.00
2018-06-12T12:57:42.364Z,99091.00
2018-06-12T13:00:11.886Z,99088.00
2018-06-12T13:02:41.361Z,99085.00
2018-06-12T13:05:10.874Z,99085.00
2018-06-12T13:07:40.346Z,99087.00
2018-06-12T13:10:10.013Z,99088.00
2018-06-12T13:12:39.493Z,99089.00
2018-06-12T13:15:09.038Z,99087.00
2018-06-12T13:17:38.638Z,99089.00
2018-06-12T13:20:08.158Z,99092.00
2018-06-12T13:22:37.849Z,99090.00
2018-06-12T13:25:07.333Z,99079.00
2018-06-12T13:27:36.753Z,99084.00
2018-06-12T13:30:06.421Z,99085.00
2018-06-12T13:32:35.988Z,99079.00
2018-06-12T13:35:05.498Z,99073.00
2018-06-12T13:37:35.050Z,99084.00
2018-06-12T13:40:04.674Z,99077.00
2018-06-12T13:42:34.138Z,99072.00
2018-06-12T13:45:03.759Z,99068.00
2018-06-12T13:47:33.285Z,99065.00
2018-06-12T13:50:02.821Z,99062.00
2018-06-12T13:52:32.340Z,99072.00
2018-06-12T13:55:01.842Z,99060.00
2018-06-12T13:57:31.310Z,99050.00
2018-06-12T14:00:01.932Z,99041.00
2018-06-12T14:02:31.452Z,99040.00
2018-06-12T14:05:01.496Z,99033.00
2018-06-12T14:07:30.849Z,99039.00
2018-06-12T14:10:00.409Z,99043.00
2018-06-12T14:12:29.970Z,99037.00
2018-06-12T14:14:59.559Z,99033.00
2018-06-12T14:17:29.127Z,99034.00
2018-06-12T14:19:58.634Z,99038.00
2018-06-12T14:22:28.127Z,99035.00
2018-06-12T14:24:57.631Z,99037.00
2018-06-12T14:27:27.208Z,99031.00
2018-06-12T14:29:56.895Z,99033.00
2018-06-12T14:32:26.570Z,99029.00
2018-06-12T14:34:56.426Z,99034.00
2018-06-12T14:37:25.868Z,99040.00
2018-06-12T14:39:55.461Z,99034.00
2018-06-12T14:42:25.063Z,99030.00
2018-06-12T14:44:54.563Z,99024.00
2018-06-12T14:47:24.099Z,99024.00
2018-06-12T14:49:53.864Z,99019.00
2018-06-12T14:52:23.499Z,99021.00
2018-06-12T14:54:53.024Z,99025.00
2018-06-12T14:57:22.541Z,99024.00
2018-06-12T14:59:52.061Z,99024.00
2018-06-12T15:02:21.822Z,99021.00
2018-06-12T15:04:51.505Z,99020.00
2018-06-12T15:07:21.120Z,99019.00
2018-06-12T15:09:50.660Z,99015.00
2018-06-12T15:12:20.292Z,99014.00
2018-06-12T15:14:49.953Z,99023.00
2018-06-12T15:17:19.742Z,99019.00
2018-06-12T15:19:49.440Z,99017.00
2018-06-12T15:22:19.123Z,99014.00
2018-06-12T15:24:48.734Z,99021.00
2018-06-12T15:27:18.624Z,99017.00
2018-06-12T15:29:48.232Z,99016.00
2018-06-12T15:32:17.811Z,99014.00
2018-06-12T15:34:47.528Z,99014.00
2018-06-12T15:37:17.045Z,99010.00
2018-06-12T15:39:46.540Z,99013.00
2018-06-12T15:42:16.104Z,99008.00
2018-06-12T15:44:45.750Z,99010.00
2018-06-12T15:47:15.190Z,99003.00
2018-06-12T15:49:44.777Z,99009.00
2018-06-12T15:52:14.330Z,98997.00
2018-06-12T15:54:43.841Z,99004.00
2018-06-12T15:57:13.390Z,99006.00
2018-06-12T15:59:42.806Z,98999.00
2018-06-12T16:02:12.435Z,99000.00
2018-06-12T16:04:41.944Z,98986.00
2018-06-12T16:07:11.413Z,98988.00
2018-06-12T16:09:40.948Z,98988.00
2018-06-12T16:12:10.628Z,98984.00
2018-06-12T16:14:40.431Z,98992.00
2018-06-12T16:17:10.158Z,98986.00
2018-06-12T16:19:39.760Z,98984.00
2018-06-12T16:22:09.351Z,98986.00
2018-06-12T16:24:39.066Z,98990.00
2018-06-12T16:27:08.967Z,98992.00
2018-06-12T16:29:38.914Z,98995.00
2018-06-12T16:32:08.536Z,98998.00
2018-06-12T16:34:38.112Z,98996.00
2018-06-12T16:37:07.723Z,99000.00
2018-06-12T16:39:37.242Z,98997.00
2018-06-12T16:42:06.702Z,98999.00
2018-06-12T16:44:36.186Z,98999.00
2018-06-12T16:47:05.665Z,99004.00
2018-06-12T16:49:36.067Z,99002.00
2018-06-12T16:52:05.515Z,99007.00
2018-06-12T16:54:34.868Z,99007.00
2018-06-12T16:57:04.346Z,99023.00
2018-06-12T16:59:33.835Z,99026.00
2018-06-12T17:02:03.231Z,99019.00
2018-06-12T17:04:32.757Z,99026.00
2018-06-12T17:07:02.301Z,99023.00
2018-06-12T17:09:31.937Z,99028.00
2018-06-12T17:12:01.502Z,99019.00
2018-06-12T17:14:31.075Z,99016.00
2018-06-12T17:17:00.572Z,99011.00
2018-06-12T17:19:30.021Z,99001.00
2018-06-12T17:21:59.499Z,99002.00
2018-06-12T17:24:29.037Z,99000.00
2018-06-12T17:26:58.476Z,98997.00
2018-06-12T17:29:28.082Z,99001.00
2018-06-12T17:31:57.671Z,98992.00
2018-06-12T17:34:27.165Z,98991.00
2018-06-12T17:36:56.650Z,98986.00
2018-06-12T17:39:26.131Z,98991.00
2018-06-12T17:41:55.578Z,98994.00
2018-06-12T17:44:25.962Z,98992.00
2018-06-12T17:46:55.493Z,98993.00
2018-06-12T17:49:24.851Z,98994.00
2018-06-12T17:51:54.304Z,98991.00
2018-06-12T17:54:23.761Z,98993.00
2018-06-12T17:56:53.166Z,98988.00
2018-06-12T17:59:22.746Z,98990.00
2018-06-12T18:01:52.291Z,98992.00
2018-06-12T18:04:21.923Z,98996.00
2018-06-12T18:06:51.642Z,98996.00
2018-06-12T18:09:21.114Z,98996.00
2018-06-12T18:11:50.728Z,99004.00
2018-06-12T18:14:20.275Z,99011.00
2018-06-12T18:16:50.152Z,99014.00
2018-06-12T18:19:20.610Z,99023.00
2018-06-12T18:21:50.083Z,99029.00
2018-06-12T18:24:19.519Z,99025.00
2018-06-12T18:26:49.075Z,99021.00
2018-06-12T18:29:18.216Z,99026.00
2018-06-12T18:31:47.925Z,99027.00
2018-06-12T18:34:17.553Z,99030.00
2018-06-12T18:36:47.361Z,99028.00
2018-06-12T18:39:17.270Z,99029.00
2018-06-12T18:41:46.966Z,99032.00
2018-06-12T18:44:16.414Z,99031.00
2018-06-12T18:46:45.973Z,99026.00
2018-06-12T18:49:15.718Z,99029.00
2018-06-12T18:51:45.193Z,99034.00
2018-06-12T18:54:14.575Z,99036.00
2018-06-12T18:56:44.119Z,99034.00
2018-06-12T18:59:13.652Z,99041.00
2018-06-12T19:01:43.205Z,99035.00
2018-06-12T19:04:12.744Z,99032.00
2018-06-12T19:06:42.347Z,99034.00
2018-06-12T19:09:11.880Z,99038.00
2018-06-12T19:11:41.380Z,99042.00
2018-06-12T19:14:11.006Z,99049.00
2018-06-12T19:16:40.568Z,99041.00
2018-06-12T19:19:10.170Z,99049.00
2018-06-12T19:21:39.894Z,99049.00
2018-06-12T19:24:09.362Z,99042.00
2018-06-12T19:26:38.930Z,99059.00
2018-06-12T19:29:08.410Z,99053.00
2018-06-12T19:31:38.062Z,99061.00
2018-06-12T19:34:07.761Z,99060.00
2018-06-12T19:36:37.676Z,99064.00
2018-06-12T19:39:08.445Z,99067.00
2018-06-12T19:41:38.090Z,99069.00
2018-06-12T19:44:07.842Z,99070.00
2018-06-12T19:46:38.440Z,99074.00
2018-06-12T19:49:10.713Z,99066.00
2018-06-12T19:51:40.022Z,99074.00
2018-06-12T19:54:09.643Z,99086.00
2018-06-12T19:56:39.244Z,99078.00
2018-06-12T19:59:08.917Z,99084.00
2018-06-12T20:01:38.498Z,99084.00
2018-06-12T20:04:08.116Z,99086.00
2018-06-12T20:06:37.850Z,99080.00
2018-06-12T20:09:08.951Z,99082.00
2018-06-12T20:11:38.466Z,99090.00
2018-06-12T20:14:08.022Z,99081.00
2018-06-12T20:16:37.540Z,99075.00
2018-06-12T20:19:07.233Z,99075.00
2018-06-12T20:21:36.849Z,99076.00
2018-06-12T20:24:06.499Z,99077.00
2018-06-12T20:26:36.062Z,99077.00
2018-06-12T20:29:05.689Z,99060.00
2018-06-12T20:31:35.185Z,99065.00
2018-06-12T20:34:04.697Z,99061.00
2018-06-12T20:36:34.328Z,99056.00
2018-06-12T20:39:04.321Z,99066.00
2018-06-12T20:41:33.881Z,99068.00
2018-06-12T20:44:03.618Z,99064.00
2018-06-12T20:46:33.126Z,99066.00
2018-06-12T20:49:02.594Z,99067.00
2018-06-12T20:51:32.045Z,99074.00
2018-06-12T20:54:01.746Z,99070.00
2018-06-12T20:56:31.219Z,99075.00
2018-06-12T20:59:00.731Z,99076.00
2018-06-12T21:01:30.289Z,99075.00
2018-06-12T21:03:59.919Z,99081.00
2018-06-12T21:06:29.418Z,99083.00
2018-06-12T21:08:59.022Z,99084.00
2018-06-12T21:11:28.559Z,99088.00
2018-06-12T21:13:58.681Z,99088.00
2018-06-12T21:16:29.133Z,99083.00
2018-06-12T21:18:59.352Z,99088.00
2018-06-12T21:21:29.761Z,99087.00
2018-06-12T21:24:00.117Z,99095.00
2018-06-12T21:26:30.247Z,99100.00
2018-06-12T21:29:00.697Z,99090.00
2018-06-12T21:31:30.892Z,99093.00
2018-06-12T21:34:01.403Z,99094.00
2018-06-12T21:36:31.545Z,99094.00
2018-06-12T21:39:01.833Z,99106.00
2018-06-12T21:41:32.223Z,99101.00
2018-06-12T21:44:02.374Z,99099.00
2018-06-12T21:46:32.581Z,99095.00
2018-06-12T21:49:02.200Z,99102.00
2018-06-12T21:51:31.718Z,99100.00
2018-06-12T21:54:01.341Z,99101.00
2018-06-12T21:56:30.758Z,99096.00
2018-06-12T21:59:00.166Z,99101.00
2018-06-12T22:01:29.666Z,99097.00
2018-06-12T22:03:59.266Z,99094.00
2018-06-12T22:06:28.737Z,99098.00
2018-06-12T22:08:58.141Z,99098.00
2018-06-12T22:11:27.578Z,99098.00
2018-06-12T22:13:57.082Z,99095.00
2018-06-12T22:16:26.545Z,99101.00
2018-06-12T22:18:55.996Z,99099.00
2018-06-12T22:21:25.488Z,99099.00
2018-06-12T22:23:54.875Z,99107.00
2018-06-12T22:26:24.399Z,99111.00
2018-06-12T22:28:53.986Z,99101.00
2018-06-12T22:31:23.600Z,99115.00
2018-06-12T22:33:53.094Z,99114.00
2018-06-12T22:36:22.529Z,99113.00
2018-06-12T22:38:52.126Z,99113.00
2018-06-12T22:41:21.592Z,99116.00
2018-06-12T22:43:51.076Z,99124.00
2018-06-12T22:46:20.509Z,99129.00
2018-06-12T22:48:50.060Z,99126.00
2018-06-12T22:51:19.560Z,99125.00
2018-06-12T22:53:49.008Z,99125.00
2018-06-12T22:56:18.436Z,99129.00
2018-06-12T22:58:48.035Z,99138.00
2018-06-12T23:01:17.688Z,99137.00
2018-06-12T23:03:47.261Z,99137.00
2018-06-12T23:06:16.752Z,99134.00
2018-06-12T23:08:46.204Z,99136.00
2018-06-12T23:11:15.711Z,99139.00
2018-06-12T23:13:45.207Z,99136.00
2018-06-12T23:16:14.792Z,99133.00
2018-06-12T23:18:44.390Z,99131.00
2018-06-12T23:21:46.204Z,99128.00
2018-06-12T23:24:16.052Z,99137.00
2018-06-12T23:26:45.667Z,99134.00
2018-06-12T23:29:15.266Z,99126.00
2018-06-12T23:31:44.715Z,99125.00
2018-06-12T23:34:14.157Z,99122.00
2018-06-12T23:36:43.796Z,99126.00
2018-06-12T23:39:13.438Z,99121.00
2018-06-12T23:41:42.991Z,99122.00
2018-06-12T23:44:12.573Z,99121.00
2018-06-12T23:46:42.123Z,99116.00
2018-06-12T23:49:11.624Z,99118.00
2018-06-12T23:51:41.143Z,99117.00
2018-06-12T23:54:10.677Z,99116.00
2018-06-12T23:56:40.223Z,99110.00
2018-06-12T23:59:09.709Z,99107.00
